createdAt,value
2022-10-13T00:01:36.324Z,6.78
2022-10-13T00:04:03.484Z,5.15
2022-10-13T00:06:30.736Z,8.57
2022-10-13T00:08:59.453Z,7.32
2022-10-13T00:11:30.198Z,4.22
2022-10-13T00:13:59.884Z,6.70
2022-10-13T00:16:32.186Z,7.75
2022-10-13T00:19:00.872Z,6.80
2022-10-13T00:21:28.716Z,4.47
2022-10-13T00:23:55.977Z,6.55
2022-10-13T00:26:25.920Z,8.25
2022-10-13T00:28:54.533Z,8.20
2022-10-13T00:31:24.295Z,5.45
2022-10-13T00:33:51.555Z,4.38
2022-10-13T00:36:24.245Z,9.07
2022-10-13T00:38:52.039Z,5.35
2022-10-13T00:41:20.387Z,5.90
2022-10-13T00:43:55.776Z,12.30
2022-10-13T00:46:25.826Z,9.82
2022-10-13T00:49:00.689Z,7.30
2022-10-13T00:51:34.831Z,12.05
2022-10-13T00:54:05.643Z,4.93
2022-10-13T00:56:36.318Z,8.98
2022-10-13T00:59:08.578Z,5.30
2022-10-13T01:01:36.211Z,6.53
2022-10-13T01:04:03.356Z,6.88
2022-10-13T01:06:32.548Z,5.88
2022-10-13T01:09:00.010Z,9.63
2022-10-13T01:11:58.578Z,6.32
2022-10-13T01:14:34.141Z,9.07
2022-10-13T01:17:15.916Z,4.75
2022-10-13T01:20:42.245Z,5.40
2022-10-13T01:23:51.360Z,5.80
2022-10-13T01:26:48.469Z,8.95
2022-10-13T01:29:58.111Z,6.13
2022-10-13T01:32:33.149Z,4.28
2022-10-13T01:35:10.176Z,5.57
2022-10-13T01:37:48.541Z,5.57
2022-10-13T01:40:24.138Z,3.53
2022-10-13T01:43:02.103Z,7.63
2022-10-13T01:45:36.870Z,7.18
2022-10-13T01:48:07.756Z,9.70
2022-10-13T01:50:41.475Z,5.45
2022-10-13T01:53:11.083Z,6.47
2022-10-13T01:55:49.079Z,8.45
2022-10-13T02:01:25.863Z,6.97
2022-10-13T02:04:09.079Z,4.65
2022-10-13T02:06:44.404Z,7.20
2022-10-13T02:09:17.925Z,4.40
2022-10-13T02:11:51.432Z,5.00
2022-10-13T02:14:24.023Z,7.50
2022-10-13T02:16:54.236Z,8.10
2022-10-13T02:19:23.637Z,10.43
2022-10-13T02:21:52.866Z,6.25
2022-10-13T02:24:20.439Z,5.05
2022-10-13T02:26:48.187Z,8.55
2022-10-13T02:29:20.152Z,5.88
2022-10-13T02:31:48.013Z,5.88
2022-10-13T02:34:15.778Z,6.47
2022-10-13T02:36:47.753Z,5.97
2022-10-13T02:39:15.628Z,10.07
2022-10-13T02:41:42.615Z,7.68
2022-10-13T02:44:09.837Z,7.22
2022-10-13T02:46:41.211Z,7.35
2022-10-13T02:49:09.585Z,6.10
2022-10-13T02:51:40.161Z,5.82
2022-10-13T02:54:09.089Z,6.68
2022-10-13T02:56:36.364Z,5.95
2022-10-13T02:59:04.218Z,8.02
2022-10-13T03:01:31.172Z,7.38
2022-10-13T03:03:58.149Z,5.70
2022-10-13T03:06:25.813Z,7.38
2022-10-13T03:08:53.369Z,7.00
2022-10-13T03:11:21.755Z,7.03
2022-10-13T03:13:48.590Z,11.00
2022-10-13T03:16:15.756Z,6.10
2022-10-13T03:18:42.800Z,9.60
2022-10-13T03:21:10.588Z,6.72
2022-10-13T03:23:41.216Z,5.78
2022-10-13T03:26:08.194Z,5.30
2022-10-13T03:28:36.586Z,5.65
2022-10-13T03:31:07.066Z,6.13
2022-10-13T03:33:34.327Z,8.60
2022-10-13T03:36:04.681Z,8.23
2022-10-13T03:38:34.021Z,10.20
2022-10-13T03:41:06.031Z,6.97
2022-10-13T03:43:33.293Z,6.78
2022-10-13T03:46:04.087Z,8.57
2022-10-13T03:48:32.839Z,8.20
2022-10-13T03:51:00.286Z,7.35
2022-10-13T03:53:27.458Z,8.95
2022-10-13T03:55:56.546Z,5.22
2022-10-13T03:58:25.573Z,6.88
2022-10-13T04:00:53.627Z,6.25
2022-10-13T04:03:22.112Z,4.20
2022-10-13T04:05:49.164Z,7.50
2022-10-13T04:08:17.140Z,6.15
2022-10-13T04:10:44.596Z,6.22
2022-10-13T04:13:12.788Z,8.50
2022-10-13T04:15:41.475Z,6.75
2022-10-13T04:18:08.836Z,5.95
2022-10-13T04:20:38.864Z,6.35
2022-10-13T04:23:07.236Z,9.45
2022-10-13T04:25:40.538Z,7.65
2022-10-13T04:28:08.201Z,8.77
2022-10-13T04:30:36.777Z,7.53
2022-10-13T04:33:04.230Z,4.05
2022-10-13T04:35:31.824Z,7.20
2022-10-13T04:38:00.291Z,7.25
2022-10-13T04:40:27.480Z,7.78
2022-10-13T04:42:54.421Z,10.20
2022-10-13T04:45:21.668Z,9.75
2022-10-13T04:47:49.955Z,7.65
2022-10-13T04:50:18.940Z,7.47
2022-10-13T04:52:47.899Z,5.93
2022-10-13T04:55:18.495Z,5.15
2022-10-13T04:57:45.527Z,11.10
2022-10-13T05:00:14.222Z,8.48
2022-10-13T05:02:41.170Z,6.63
2022-10-13T05:05:09.660Z,9.35
2022-10-13T05:07:37.241Z,6.32
2022-10-13T05:10:05.298Z,7.68
2022-10-13T05:12:33.971Z,7.10
2022-10-13T05:15:01.238Z,7.80
2022-10-13T05:17:34.871Z,11.07
2022-10-13T05:20:10.500Z,7.00
2022-10-13T05:22:37.650Z,7.22
2022-10-13T05:25:05.738Z,11.43
2022-10-13T05:27:34.102Z,7.20
2022-10-13T05:30:06.205Z,5.78
2022-10-13T05:32:35.299Z,8.95
2022-10-13T05:35:02.221Z,9.82
2022-10-13T05:37:31.539Z,7.35
2022-10-13T05:39:58.637Z,5.88
2022-10-13T05:42:28.234Z,9.10
2022-10-13T05:44:57.413Z,8.05
2022-10-13T05:47:24.674Z,9.48
2022-10-13T05:49:56.265Z,10.77
2022-10-13T05:52:25.535Z,10.57
2022-10-13T05:54:59.129Z,13.05
2022-10-13T05:57:49.639Z,6.75
2022-10-13T06:00:34.386Z,7.28
2022-10-13T06:03:19.134Z,10.10
2022-10-13T06:05:48.446Z,9.13
2022-10-13T06:08:16.922Z,8.30
2022-10-13T06:10:45.131Z,8.00
2022-10-13T06:13:12.163Z,7.47
2022-10-13T06:15:40.657Z,11.27
2022-10-13T06:18:08.715Z,10.00
2022-10-13T06:20:36.594Z,26.02
2022-10-13T06:23:04.045Z,13.98
2022-10-13T06:25:32.671Z,8.65
2022-10-13T06:27:59.810Z,13.35
2022-10-13T06:30:27.321Z,9.45
2022-10-13T06:32:55.951Z,8.75
2022-10-13T06:35:23.338Z,9.35
2022-10-13T06:37:50.456Z,8.52
2022-10-13T06:40:17.442Z,11.10
2022-10-13T06:42:50.165Z,6.57
2022-10-13T06:45:17.553Z,7.60
2022-10-13T06:47:44.646Z,10.15
2022-10-13T06:50:13.508Z,9.13
2022-10-13T06:52:40.499Z,7.13
2022-10-13T06:55:08.346Z,10.10
2022-10-13T06:57:36.929Z,6.13
2022-10-13T07:00:09.114Z,6.75
2022-10-13T07:02:37.746Z,9.57
2022-10-13T07:05:05.446Z,8.52
2022-10-13T07:10:25.357Z,8.25
2022-10-13T07:12:52.568Z,7.05
2022-10-13T07:15:19.471Z,8.80
2022-10-13T07:17:49.715Z,7.63
2022-10-13T07:20:16.774Z,7.47
2022-10-13T07:22:45.103Z,7.90
2022-10-13T07:25:12.379Z,7.07
2022-10-13T07:27:39.959Z,9.25
2022-10-13T07:30:08.855Z,10.15
2022-10-13T07:32:36.627Z,9.10
2022-10-13T07:35:06.924Z,8.02
2022-10-13T07:37:33.909Z,12.43
2022-10-13T07:40:02.263Z,10.13
2022-10-13T07:42:29.450Z,10.30
2022-10-13T07:44:56.375Z,10.25
2022-10-13T07:47:23.659Z,7.63
2022-10-13T07:49:50.690Z,11.48
2022-10-13T07:52:18.530Z,8.50
2022-10-13T07:54:45.706Z,8.93
2022-10-13T07:57:14.536Z,10.27
2022-10-13T07:59:41.682Z,15.15
2022-10-13T08:02:13.358Z,8.63
2022-10-13T08:04:40.486Z,12.05
2022-10-13T08:07:07.758Z,10.50
2022-10-13T08:09:35.762Z,8.95
2022-10-13T08:12:03.509Z,10.30
2022-10-13T08:14:31.879Z,9.85
2022-10-13T08:16:59.041Z,8.85
2022-10-13T08:19:26.593Z,11.02
2022-10-13T08:21:59.252Z,7.07
2022-10-13T08:24:27.649Z,9.63
2022-10-13T08:26:56.750Z,13.20
2022-10-13T08:29:24.497Z,15.60
2022-10-13T08:31:54.399Z,10.88
2022-10-13T08:34:22.227Z,9.43
2022-10-13T08:36:49.594Z,8.65
2022-10-13T08:39:16.693Z,9.55
2022-10-13T08:41:45.111Z,12.55
2022-10-13T08:47:23.628Z,10.18
2022-10-13T08:49:50.949Z,10.48
2022-10-13T08:52:24.758Z,11.05
2022-10-13T08:54:56.874Z,14.15
2022-10-13T08:59:53.029Z,10.68
2022-10-13T09:02:30.100Z,11.18
2022-10-13T09:05:03.352Z,12.38
2022-10-13T09:07:36.407Z,12.07
2022-10-13T09:10:05.294Z,11.95
2022-10-13T09:12:32.136Z,14.45
2022-10-13T09:15:03.757Z,8.15
2022-10-13T09:17:34.690Z,9.40
2022-10-13T09:20:07.250Z,9.45
2022-10-13T09:22:36.683Z,11.27
2022-10-13T09:25:20.961Z,18.48
2022-10-13T09:27:53.440Z,13.00
2022-10-13T09:30:33.285Z,15.45
2022-10-13T09:33:23.968Z,12.82
2022-10-13T09:36:10.267Z,17.15
2022-10-13T09:38:38.682Z,14.50
2022-10-13T09:41:14.322Z,14.10
2022-10-13T09:43:43.928Z,13.25
2022-10-13T09:46:23.906Z,8.40
2022-10-13T09:48:56.374Z,15.40
2022-10-13T09:51:44.266Z,13.45
2022-10-13T09:54:36.023Z,13.88
2022-10-13T09:57:12.197Z,13.75
2022-10-13T09:59:45.952Z,12.65
2022-10-13T10:02:26.564Z,14.02
2022-10-13T10:05:02.092Z,14.40
2022-10-13T10:07:32.606Z,14.35
2022-10-13T10:10:13.202Z,12.50
2022-10-13T10:12:43.375Z,10.85
2022-10-13T10:15:23.530Z,18.13
2022-10-13T10:17:57.381Z,14.07
2022-10-13T10:20:47.565Z,15.73
2022-10-13T10:23:22.868Z,15.57
2022-10-13T10:25:58.634Z,19.80
2022-10-13T10:28:49.790Z,17.58
2022-10-13T10:31:36.729Z,19.77
2022-10-13T10:34:27.364Z,13.88
2022-10-13T10:37:14.800Z,18.33
2022-10-13T10:39:54.813Z,12.90
2022-10-13T10:42:59.834Z,14.43
2022-10-13T10:45:31.156Z,13.50
2022-10-13T10:48:05.197Z,17.17
2022-10-13T10:50:34.679Z,15.35
2022-10-13T10:53:13.189Z,13.65
2022-10-13T10:55:51.307Z,19.65
2022-10-13T10:58:33.630Z,12.82
2022-10-13T11:01:15.204Z,12.98
2022-10-13T11:03:57.173Z,17.92
2022-10-13T11:06:34.184Z,16.13
2022-10-13T11:09:05.397Z,13.32
2022-10-13T11:11:39.051Z,18.15
2022-10-13T11:14:30.979Z,14.05
2022-10-13T11:17:19.572Z,17.00
2022-10-13T11:19:48.607Z,13.93
2022-10-13T11:22:22.941Z,12.88
2022-10-13T11:25:23.134Z,13.82
2022-10-13T11:27:50.464Z,13.85
2022-10-13T11:30:49.760Z,12.65
2022-10-13T11:33:52.321Z,14.05
2022-10-13T11:36:46.111Z,12.75
2022-10-13T11:39:52.630Z,24.13
2022-10-13T11:42:48.157Z,14.57
2022-10-13T11:45:40.802Z,16.50
2022-10-13T11:48:51.144Z,15.88
2022-10-13T11:51:32.506Z,16.10
2022-10-13T11:54:14.998Z,17.77
2022-10-13T11:56:48.910Z,17.40
2022-10-13T11:59:27.963Z,18.88
2022-10-13T12:01:57.881Z,23.73
2022-10-13T12:04:28.214Z,18.50
2022-10-13T12:07:01.295Z,15.13
2022-10-13T12:09:30.401Z,17.95
2022-10-13T12:12:02.137Z,13.27
2022-10-13T12:14:40.872Z,15.02
2022-10-13T12:17:23.902Z,15.80
2022-10-13T12:19:52.481Z,19.40
2022-10-13T12:22:19.427Z,17.15
2022-10-13T12:24:59.174Z,11.77
2022-10-13T12:27:28.471Z,18.55
2022-10-13T12:29:57.397Z,20.75
2022-10-13T12:32:28.013Z,18.73
2022-10-13T12:34:55.672Z,12.18
2022-10-13T12:37:32.249Z,17.15
2022-10-13T12:40:01.681Z,16.25
2022-10-13T12:42:32.322Z,14.35
2022-10-13T12:45:02.625Z,13.75
2022-10-13T12:50:34.595Z,12.32
2022-10-13T12:53:14.224Z,14.02
2022-10-13T12:55:57.648Z,10.48
2022-10-13T12:58:30.343Z,16.33
2022-10-13T13:01:18.013Z,13.63
2022-10-13T13:03:45.115Z,13.68
2022-10-13T13:06:52.116Z,15.13
2022-10-13T13:09:26.450Z,16.30
2022-10-13T13:14:52.015Z,16.00
2022-10-13T13:17:57.662Z,17.35
2022-10-13T13:20:27.690Z,10.52
2022-10-13T13:22:55.654Z,14.10
2022-10-13T13:25:23.680Z,12.98
2022-10-13T13:27:51.519Z,11.73
2022-10-13T13:30:21.756Z,11.98
2022-10-13T13:32:50.611Z,13.80
2022-10-13T13:35:17.982Z,13.38
2022-10-13T13:37:48.853Z,12.07
2022-10-13T13:40:18.827Z,15.02
2022-10-13T13:42:45.897Z,14.63
2022-10-13T13:45:14.815Z,15.05
2022-10-13T13:47:42.545Z,11.18
2022-10-13T13:50:18.709Z,16.58
2022-10-13T13:52:56.611Z,17.58
2022-10-13T13:55:24.172Z,17.67
2022-10-13T13:57:51.433Z,16.52
2022-10-13T14:00:19.540Z,15.32
2022-10-13T14:02:53.729Z,14.32
2022-10-13T14:05:22.697Z,14.05
2022-10-13T14:07:49.823Z,12.25
2022-10-13T14:10:16.832Z,10.65
2022-10-13T14:12:44.205Z,14.90
2022-10-13T14:15:11.456Z,19.23
2022-10-13T14:17:38.413Z,14.73
2022-10-13T14:20:07.111Z,14.35
2022-10-13T14:22:39.706Z,15.85
2022-10-13T14:25:08.385Z,17.88
2022-10-13T14:27:35.831Z,15.95
2022-10-13T14:30:04.644Z,13.43
2022-10-13T14:32:32.002Z,14.40
2022-10-13T14:34:59.373Z,18.00
2022-10-13T14:37:34.140Z,14.68
2022-10-13T14:40:03.098Z,12.55
2022-10-13T14:42:30.766Z,16.95
2022-10-13T14:44:57.796Z,13.02
2022-10-13T14:47:25.066Z,15.05
2022-10-13T14:49:52.307Z,16.25
2022-10-13T14:52:19.173Z,19.88
2022-10-13T14:54:46.208Z,16.25
2022-10-13T14:57:14.600Z,14.93
2022-10-13T14:59:42.043Z,15.05
2022-10-13T15:02:09.742Z,14.90
2022-10-13T15:04:37.552Z,18.42
2022-10-13T15:07:04.655Z,16.08
2022-10-13T15:09:45.508Z,17.13
2022-10-13T15:12:22.112Z,16.85
2022-10-13T15:14:49.476Z,14.40
2022-10-13T15:17:16.611Z,17.80
2022-10-13T15:19:45.350Z,13.95
2022-10-13T15:22:12.351Z,18.33
2022-10-13T15:24:42.499Z,17.42
2022-10-13T15:27:09.528Z,17.70
2022-10-13T15:29:37.823Z,17.20
2022-10-13T15:32:10.092Z,18.23
2022-10-13T15:34:38.867Z,18.20
2022-10-13T15:37:05.925Z,21.65
2022-10-13T15:39:32.794Z,18.65
2022-10-13T15:42:00.196Z,18.65
2022-10-13T15:44:40.309Z,17.33
2022-10-13T15:47:17.775Z,13.68
2022-10-13T15:49:44.847Z,14.88
2022-10-13T15:52:14.219Z,16.23
2022-10-13T15:54:41.746Z,17.98
2022-10-13T15:57:09.170Z,17.98
2022-10-13T15:59:36.297Z,16.63
2022-10-13T16:02:03.611Z,16.70
2022-10-13T16:04:37.124Z,16.30
2022-10-13T16:07:05.048Z,15.95
2022-10-13T16:09:32.531Z,18.35
2022-10-13T16:11:59.935Z,17.63
2022-10-13T16:14:27.128Z,17.27
2022-10-13T16:16:54.123Z,19.13
2022-10-13T16:19:21.657Z,18.88
2022-10-13T16:21:50.362Z,19.35
2022-10-13T16:24:24.505Z,19.77
2022-10-13T16:26:51.432Z,24.30
2022-10-13T16:29:18.780Z,28.40
2022-10-13T16:31:45.815Z,23.15
2022-10-13T16:34:12.922Z,24.67
2022-10-13T16:36:39.951Z,19.70
2022-10-13T16:39:09.047Z,19.25
2022-10-13T16:41:42.329Z,18.95
2022-10-13T16:44:09.384Z,22.80
2022-10-13T16:47:01.439Z,18.92
2022-10-13T16:49:28.352Z,22.98
2022-10-13T16:51:55.197Z,23.50
2022-10-13T16:54:23.596Z,23.27
2022-10-13T16:56:50.633Z,18.40
2022-10-13T16:59:17.640Z,20.95
2022-10-13T17:01:45.272Z,18.73
2022-10-13T17:04:12.329Z,20.95
2022-10-13T17:06:39.690Z,18.17
2022-10-13T17:09:06.869Z,19.55
2022-10-13T17:11:36.584Z,18.30
2022-10-13T17:14:05.246Z,16.92
2022-10-13T17:16:33.301Z,19.48
2022-10-13T17:19:00.379Z,16.55
2022-10-13T17:21:34.082Z,16.98
2022-10-13T17:24:03.579Z,18.95
2022-10-13T17:26:33.488Z,19.50
2022-10-13T17:29:05.320Z,15.88
2022-10-13T17:31:32.615Z,23.38
2022-10-13T17:34:00.123Z,20.45
2022-10-13T17:36:37.269Z,19.55
2022-10-13T17:39:12.539Z,17.30
2022-10-13T17:41:40.308Z,18.73
2022-10-13T17:44:09.672Z,18.15
2022-10-13T17:47:03.247Z,22.67
2022-10-13T17:49:30.099Z,18.55
2022-10-13T17:51:57.070Z,17.70
2022-10-13T17:54:24.090Z,17.40
2022-10-13T17:56:51.276Z,18.65
2022-10-13T17:59:19.704Z,21.00
2022-10-13T18:01:47.091Z,23.58
2022-10-13T18:04:18.215Z,21.92
2022-10-13T18:06:47.969Z,20.55
2022-10-13T18:09:18.456Z,19.80
2022-10-13T18:11:50.806Z,26.00
2022-10-13T18:14:22.328Z,23.58
2022-10-13T18:16:49.901Z,22.60
2022-10-13T18:19:17.345Z,20.00
2022-10-13T18:21:44.400Z,18.13
2022-10-13T18:24:11.551Z,16.63
2022-10-13T18:26:38.917Z,14.68
2022-10-13T18:29:10.368Z,17.23
2022-10-13T18:31:40.491Z,16.08
2022-10-13T18:34:11.974Z,17.30
2022-10-13T18:36:41.469Z,18.13
2022-10-13T18:39:13.653Z,19.92
2022-10-13T18:41:43.138Z,25.33
2022-10-13T18:44:10.362Z,26.35
2022-10-13T18:47:04.478Z,23.77
2022-10-13T18:49:31.744Z,23.83
2022-10-13T18:51:59.765Z,23.52
2022-10-13T18:54:27.478Z,21.50
2022-10-13T18:56:54.318Z,19.05
2022-10-13T18:59:21.268Z,17.27
2022-10-13T19:01:48.539Z,18.30
2022-10-13T19:04:16.893Z,16.40
2022-10-13T19:06:44.982Z,17.00
2022-10-13T19:09:15.026Z,19.63
2022-10-13T19:11:42.362Z,16.65
2022-10-13T19:14:12.707Z,18.25
2022-10-13T19:16:42.642Z,15.98
2022-10-13T19:19:10.489Z,17.77
2022-10-13T19:21:39.822Z,16.08
2022-10-13T19:24:09.712Z,17.38
2022-10-13T19:26:36.944Z,15.90
2022-10-13T19:29:07.420Z,16.08
2022-10-13T19:31:36.212Z,15.70
2022-10-13T19:34:07.751Z,16.17
2022-10-13T19:36:39.101Z,14.25
2022-10-13T19:39:11.648Z,16.15
2022-10-13T19:41:39.330Z,15.98
2022-10-13T19:44:06.526Z,14.60
2022-10-13T19:46:38.894Z,16.00
2022-10-13T19:49:06.448Z,14.60
2022-10-13T19:51:35.676Z,16.77
2022-10-13T19:54:04.561Z,13.18
2022-10-13T19:56:31.859Z,15.68
2022-10-13T19:58:59.022Z,15.27
2022-10-13T20:01:26.621Z,19.27
2022-10-13T20:03:54.871Z,16.35
2022-10-13T20:06:22.900Z,12.90
2022-10-13T20:08:50.072Z,12.55
2022-10-13T20:11:23.912Z,14.18
2022-10-13T20:13:53.231Z,18.23
2022-10-13T20:16:23.510Z,13.60
2022-10-13T20:18:55.690Z,13.13
2022-10-13T20:21:24.322Z,14.65
2022-10-13T20:23:51.842Z,15.05
2022-10-13T20:26:20.592Z,16.67
2022-10-13T20:28:49.969Z,15.88
2022-10-13T20:31:20.574Z,14.27
2022-10-13T20:33:48.001Z,15.90
2022-10-13T20:36:17.716Z,13.82
2022-10-13T20:38:44.765Z,14.57
2022-10-13T20:41:17.992Z,18.00
2022-10-13T20:43:47.347Z,16.27
2022-10-13T20:46:16.883Z,14.40
2022-10-13T20:49:09.928Z,14.57
2022-10-13T20:51:31.765Z,19.38
2022-10-13T20:53:58.739Z,21.13
2022-10-13T20:56:27.356Z,16.27
2022-10-13T20:58:55.792Z,17.77
2022-10-13T21:01:27.690Z,16.88
2022-10-13T21:03:55.549Z,18.38
2022-10-13T21:06:25.347Z,18.13
2022-10-13T21:08:52.799Z,15.77
2022-10-13T21:11:22.142Z,17.40
2022-10-13T21:13:50.932Z,18.27
2022-10-13T21:16:22.317Z,18.50
2022-10-13T21:18:51.782Z,19.50
2022-10-13T21:21:21.918Z,22.02
2022-10-13T21:26:21.911Z,18.45
2022-10-13T21:28:50.766Z,17.42
2022-10-13T21:31:22.142Z,19.08
2022-10-13T21:33:50.111Z,19.10
2022-10-13T21:36:20.812Z,19.55
2022-10-13T21:38:51.396Z,20.75
2022-10-13T21:41:18.595Z,19.45
2022-10-13T21:43:46.465Z,20.95
2022-10-13T21:46:16.376Z,18.70
2022-10-13T21:48:47.221Z,20.92
2022-10-13T21:51:17.123Z,25.23
2022-10-13T21:53:48.799Z,21.67
2022-10-13T21:56:16.469Z,22.80
2022-10-13T21:58:43.624Z,18.75
2022-10-13T22:01:11.107Z,21.00
2022-10-13T22:03:38.140Z,21.05
2022-10-13T22:06:13.346Z,20.40
2022-10-13T22:08:46.481Z,21.83
2022-10-13T22:11:22.774Z,20.35
2022-10-13T22:13:50.716Z,25.13
2022-10-13T22:16:21.047Z,23.70
2022-10-13T22:18:50.959Z,23.15
2022-10-13T22:21:22.814Z,21.55
2022-10-13T22:23:54.996Z,23.20
2022-10-13T22:26:22.051Z,24.77
2022-10-13T22:28:49.804Z,26.77
2022-10-13T22:31:17.475Z,21.45
2022-10-13T22:33:44.766Z,25.65
2022-10-13T22:36:16.202Z,23.55
2022-10-13T22:38:46.009Z,21.98
2022-10-13T22:41:14.586Z,21.65
2022-10-13T22:43:42.807Z,20.27
2022-10-13T22:46:14.532Z,20.87
2022-10-13T22:48:41.923Z,25.08
2022-10-13T22:51:18.269Z,21.85
2022-10-13T22:53:47.855Z,24.13
2022-10-13T22:56:18.408Z,23.25
2022-10-13T22:58:53.355Z,22.10
2022-10-13T23:01:22.340Z,23.92
2022-10-13T23:03:52.441Z,23.17
2022-10-13T23:06:22.312Z,21.27
2022-10-13T23:08:51.070Z,22.30
2022-10-13T23:11:21.840Z,21.00
2022-10-13T23:13:49.732Z,26.17
2022-10-13T23:16:23.415Z,22.85
2022-10-13T23:18:51.362Z,24.30
2022-10-13T23:21:28.050Z,20.77
2022-10-13T23:23:58.773Z,23.90
2022-10-13T23:26:26.489Z,20.23
2022-10-13T23:28:55.266Z,21.85
2022-10-13T23:31:29.858Z,25.00
2022-10-13T23:33:58.244Z,23.23
2022-10-13T23:36:28.279Z,18.98
2022-10-13T23:39:00.425Z,25.05
2022-10-13T23:41:28.529Z,23.47
2022-10-13T23:43:55.729Z,24.77
2022-10-13T23:46:23.160Z,22.73
2022-10-13T23:48:50.731Z,21.50
2022-10-13T23:51:21.144Z,24.73
2022-10-13T23:53:48.500Z,24.70
2022-10-13T23:56:19.513Z,25.58
2022-10-13T23:58:46.789Z,26.38
